sensor_id;sensor_type;location;lat;lon;timestamp;P1;durP1;ratioP1;P2;durP2;ratioP2
16699;SDS011;8466;52.286;21.124;2022-07-06T00:00:08;16.10;;;14.93;;
16699;SDS011;8466;52.286;21.124;2022-07-06T00:02:38;16.58;;;15.55;;
16699;SDS011;8466;52.286;21.124;2022-07-06T00:05:09;17.05;;;15.85;;
16699;SDS011;8466;52.286;21.124;2022-07-06T00:07:37;16.33;;;15.27;;
16699;SDS011;8466;52.286;21.124;2022-07-06T00:10:07;18.85;;;17.45;;
16699;SDS011;8466;52.286;21.124;2022-07-06T00:12:36;19.05;;;17.85;;
16699;SDS011;8466;52.286;21.124;2022-07-06T00:15:05;17.88;;;16.65;;
16699;SDS011;8466;52.286;21.124;2022-07-06T00:17:34;15.43;;;14.30;;
16699;SDS011;8466;52.286;21.124;2022-07-06T00:20:03;17.05;;;15.95;;
16699;SDS011;8466;52.286;21.124;2022-07-06T00:22:35;16.00;;;14.77;;
16699;SDS011;8466;52.286;21.124;2022-07-06T00:25:04;15.15;;;14.05;;
16699;SDS011;8466;52.286;21.124;2022-07-06T00:27:33;16.05;;;15.05;;
16699;SDS011;8466;52.286;21.124;2022-07-06T00:30:02;20.05;;;18.67;;
16699;SDS011;8466;52.286;21.124;2022-07-06T00:32:32;17.65;;;16.55;;
16699;SDS011;8466;52.286;21.124;2022-07-06T00:35:01;90.93;;;85.80;;
16699;SDS011;8466;52.286;21.124;2022-07-06T00:37:30;18.60;;;17.50;;
16699;SDS011;8466;52.286;21.124;2022-07-06T00:40:01;17.63;;;16.60;;
16699;SDS011;8466;52.286;21.124;2022-07-06T00:42:34;17.30;;;16.10;;
16699;SDS011;8466;52.286;21.124;2022-07-06T00:45:08;17.52;;;16.35;;
16699;SDS011;8466;52.286;21.124;2022-07-06T00:47:38;17.90;;;16.80;;
16699;SDS011;8466;52.286;21.124;2022-07-06T00:50:10;18.45;;;17.35;;
16699;SDS011;8466;52.286;21.124;2022-07-06T00:52:47;19.27;;;17.92;;
16699;SDS011;8466;52.286;21.124;2022-07-06T00:55:19;18.20;;;16.92;;
16699;SDS011;8466;52.286;21.124;2022-07-06T00:57:49;20.13;;;18.92;;
16699;SDS011;8466;52.286;21.124;2022-07-06T01:00:19;18.30;;;16.90;;
16699;SDS011;8466;52.286;21.124;2022-07-06T01:02:50;20.10;;;18.80;;
16699;SDS011;8466;52.286;21.124;2022-07-06T01:05:20;18.90;;;17.67;;
16699;SDS011;8466;52.286;21.124;2022-07-06T01:07:50;20.08;;;18.80;;
16699;SDS011;8466;52.286;21.124;2022-07-06T01:10:22;18.17;;;17.15;;
16699;SDS011;8466;52.286;21.124;2022-07-06T01:12:51;21.25;;;19.80;;
16699;SDS011;8466;52.286;21.124;2022-07-06T01:15:20;18.60;;;17.40;;
16699;SDS011;8466;52.286;21.124;2022-07-06T01:17:50;19.20;;;17.90;;
16699;SDS011;8466;52.286;21.124;2022-07-06T01:20:21;16.65;;;15.65;;
16699;SDS011;8466;52.286;21.124;2022-07-06T01:22:52;18.63;;;17.52;;
16699;SDS011;8466;52.286;21.124;2022-07-06T01:25:23;21.08;;;19.60;;
16699;SDS011;8466;52.286;21.124;2022-07-06T01:27:52;17.65;;;16.65;;
16699;SDS011;8466;52.286;21.124;2022-07-06T01:30:20;17.75;;;16.63;;
16699;SDS011;8466;52.286;21.124;2022-07-06T01:32:50;18.63;;;17.33;;
16699;SDS011;8466;52.286;21.124;2022-07-06T01:35:21;16.83;;;15.82;;
16699;SDS011;8466;52.286;21.124;2022-07-06T01:37:52;16.35;;;15.35;;
16699;SDS011;8466;52.286;21.124;2022-07-06T01:40:21;18.42;;;17.33;;
16699;SDS011;8466;52.286;21.124;2022-07-06T01:42:49;18.23;;;17.13;;
16699;SDS011;8466;52.286;21.124;2022-07-06T01:45:18;18.25;;;17.10;;
16699;SDS011;8466;52.286;21.124;2022-07-06T01:47:47;17.02;;;15.98;;
16699;SDS011;8466;52.286;21.124;2022-07-06T01:50:15;17.85;;;16.75;;
16699;SDS011;8466;52.286;21.124;2022-07-06T01:52:46;17.85;;;16.70;;
16699;SDS011;8466;52.286;21.124;2022-07-06T01:55:15;15.32;;;14.43;;
16699;SDS011;8466;52.286;21.124;2022-07-06T01:57:43;15.35;;;14.45;;
16699;SDS011;8466;52.286;21.124;2022-07-06T02:00:12;19.98;;;18.67;;
16699;SDS011;8466;52.286;21.124;2022-07-06T02:02:42;15.45;;;14.45;;
16699;SDS011;8466;52.286;21.124;2022-07-06T02:05:11;16.85;;;15.70;;
16699;SDS011;8466;52.286;21.124;2022-07-06T02:07:39;15.38;;;14.50;;
16699;SDS011;8466;52.286;21.124;2022-07-06T02:10:09;17.38;;;16.17;;
16699;SDS011;8466;52.286;21.124;2022-07-06T02:12:38;17.10;;;16.00;;
16699;SDS011;8466;52.286;21.124;2022-07-06T02:15:07;16.50;;;15.35;;
16699;SDS011;8466;52.286;21.124;2022-07-06T02:17:36;18.08;;;16.98;;
16699;SDS011;8466;52.286;21.124;2022-07-06T02:20:05;17.45;;;16.13;;
16699;SDS011;8466;52.286;21.124;2022-07-06T02:22:35;17.58;;;16.48;;
16699;SDS011;8466;52.286;21.124;2022-07-06T02:25:04;16.25;;;15.23;;
16699;SDS011;8466;52.286;21.124;2022-07-06T02:27:35;19.58;;;18.08;;
16699;SDS011;8466;52.286;21.124;2022-07-06T02:30:04;17.73;;;16.35;;
16699;SDS011;8466;52.286;21.124;2022-07-06T02:32:34;17.63;;;16.33;;
16699;SDS011;8466;52.286;21.124;2022-07-06T02:35:02;15.27;;;14.30;;
16699;SDS011;8466;52.286;21.124;2022-07-06T02:37:32;17.73;;;16.42;;
16699;SDS011;8466;52.286;21.124;2022-07-06T02:40:01;15.95;;;14.73;;
16699;SDS011;8466;52.286;21.124;2022-07-06T02:42:29;19.92;;;18.50;;
16699;SDS011;8466;52.286;21.124;2022-07-06T02:44:59;18.52;;;17.42;;
16699;SDS011;8466;52.286;21.124;2022-07-06T02:47:29;17.80;;;16.65;;
16699;SDS011;8466;52.286;21.124;2022-07-06T02:49:57;18.40;;;17.30;;
16699;SDS011;8466;52.286;21.124;2022-07-06T02:52:26;20.08;;;18.65;;
16699;SDS011;8466;52.286;21.124;2022-07-06T02:54:55;17.10;;;16.00;;
16699;SDS011;8466;52.286;21.124;2022-07-06T02:57:24;16.60;;;15.40;;
16699;SDS011;8466;52.286;21.124;2022-07-06T02:59:52;19.95;;;18.50;;
16699;SDS011;8466;52.286;21.124;2022-07-06T03:02:22;19.52;;;18.17;;
16699;SDS011;8466;52.286;21.124;2022-07-06T03:04:51;18.25;;;17.15;;
16699;SDS011;8466;52.286;21.124;2022-07-06T03:07:20;19.23;;;18.02;;
16699;SDS011;8466;52.286;21.124;2022-07-06T03:09:49;18.55;;;17.42;;
16699;SDS011;8466;52.286;21.124;2022-07-06T03:12:17;16.98;;;15.77;;
16699;SDS011;8466;52.286;21.124;2022-07-06T03:14:46;19.50;;;18.13;;
16699;SDS011;8466;52.286;21.124;2022-07-06T03:17:15;19.73;;;18.42;;
16699;SDS011;8466;52.286;21.124;2022-07-06T03:19:45;18.05;;;16.85;;
16699;SDS011;8466;52.286;21.124;2022-07-06T03:22:14;18.60;;;17.48;;
16699;SDS011;8466;52.286;21.124;2022-07-06T03:24:43;18.95;;;17.80;;
16699;SDS011;8466;52.286;21.124;2022-07-06T03:27:12;18.40;;;17.30;;
16699;SDS011;8466;52.286;21.124;2022-07-06T03:29:41;38.88;;;35.00;;
16699;SDS011;8466;52.286;21.124;2022-07-06T03:32:10;31.55;;;28.85;;
16699;SDS011;8466;52.286;21.124;2022-07-06T03:34:39;27.17;;;25.02;;
16699;SDS011;8466;52.286;21.124;2022-07-06T03:37:09;26.05;;;23.95;;
16699;SDS011;8466;52.286;21.124;2022-07-06T03:39:38;38.53;;;35.05;;
16699;SDS011;8466;52.286;21.124;2022-07-06T03:42:07;25.63;;;23.55;;
16699;SDS011;8466;52.286;21.124;2022-07-06T03:44:36;18.20;;;17.10;;
16699;SDS011;8466;52.286;21.124;2022-07-06T03:47:05;18.45;;;17.25;;
16699;SDS011;8466;52.286;21.124;2022-07-06T03:49:34;16.95;;;15.73;;
16699;SDS011;8466;52.286;21.124;2022-07-06T03:52:03;19.60;;;18.42;;
16699;SDS011;8466;52.286;21.124;2022-07-06T03:54:33;20.10;;;18.90;;
16699;SDS011;8466;52.286;21.124;2022-07-06T03:57:02;17.58;;;16.50;;
16699;SDS011;8466;52.286;21.124;2022-07-06T03:59:31;16.95;;;15.75;;
16699;SDS011;8466;52.286;21.124;2022-07-06T04:02:00;18.95;;;17.80;;
16699;SDS011;8466;52.286;21.124;2022-07-06T04:04:29;20.92;;;19.33;;
16699;SDS011;8466;52.286;21.124;2022-07-06T04:06:58;21.35;;;20.10;;
16699;SDS011;8466;52.286;21.124;2022-07-06T04:09:27;19.60;;;18.45;;
16699;SDS011;8466;52.286;21.124;2022-07-06T04:11:57;16.67;;;15.60;;
16699;SDS011;8466;52.286;21.124;2022-07-06T04:14:26;17.95;;;16.85;;
16699;SDS011;8466;52.286;21.124;2022-07-06T04:16:55;21.30;;;19.88;;
16699;SDS011;8466;52.286;21.124;2022-07-06T04:19:23;19.77;;;18.70;;
16699;SDS011;8466;52.286;21.124;2022-07-06T04:21:53;95.95;;;90.38;;
16699;SDS011;8466;52.286;21.124;2022-07-06T04:24:21;25.17;;;23.77;;
16699;SDS011;8466;52.286;21.124;2022-07-06T04:26:50;15.88;;;14.98;;
16699;SDS011;8466;52.286;21.124;2022-07-06T04:29:20;16.67;;;15.73;;
16699;SDS011;8466;52.286;21.124;2022-07-06T04:31:49;16.27;;;15.38;;
16699;SDS011;8466;52.286;21.124;2022-07-06T04:34:18;22.73;;;21.42;;
16699;SDS011;8466;52.286;21.124;2022-07-06T04:36:46;90.88;;;85.00;;
16699;SDS011;8466;52.286;21.124;2022-07-06T04:39:15;31.67;;;29.85;;
16699;SDS011;8466;52.286;21.124;2022-07-06T04:41:44;20.45;;;19.27;;
16699;SDS011;8466;52.286;21.124;2022-07-06T04:44:12;25.90;;;24.38;;
16699;SDS011;8466;52.286;21.124;2022-07-06T04:46:43;25.77;;;24.23;;
16699;SDS011;8466;52.286;21.124;2022-07-06T04:49:11;25.92;;;24.45;;
16699;SDS011;8466;52.286;21.124;2022-07-06T04:51:40;30.60;;;28.90;;
16699;SDS011;8466;52.286;21.124;2022-07-06T04:54:09;28.08;;;26.48;;
16699;SDS011;8466;52.286;21.124;2022-07-06T04:56:38;21.10;;;19.73;;
16699;SDS011;8466;52.286;21.124;2022-07-06T04:59:06;23.35;;;22.02;;
16699;SDS011;8466;52.286;21.124;2022-07-06T05:01:35;24.15;;;22.80;;
16699;SDS011;8466;52.286;21.124;2022-07-06T05:04:05;67.47;;;63.50;;
16699;SDS011;8466;52.286;21.124;2022-07-06T05:06:34;19.08;;;17.92;;
16699;SDS011;8466;52.286;21.124;2022-07-06T05:09:03;22.48;;;21.13;;
16699;SDS011;8466;52.286;21.124;2022-07-06T05:11:32;20.55;;;19.35;;
16699;SDS011;8466;52.286;21.124;2022-07-06T05:14:01;19.15;;;17.95;;
16699;SDS011;8466;52.286;21.124;2022-07-06T05:16:29;16.30;;;15.18;;
16699;SDS011;8466;52.286;21.124;2022-07-06T05:18:59;17.10;;;15.98;;
16699;SDS011;8466;52.286;21.124;2022-07-06T05:21:29;18.23;;;16.98;;
16699;SDS011;8466;52.286;21.124;2022-07-06T05:23:58;17.70;;;16.50;;
16699;SDS011;8466;52.286;21.124;2022-07-06T05:26:27;15.98;;;14.98;;
16699;SDS011;8466;52.286;21.124;2022-07-06T05:28:55;18.50;;;17.27;;
16699;SDS011;8466;52.286;21.124;2022-07-06T05:31:24;17.52;;;16.38;;
16699;SDS011;8466;52.286;21.124;2022-07-06T05:33:53;15.63;;;14.60;;
16699;SDS011;8466;52.286;21.124;2022-07-06T05:36:22;15.07;;;14.25;;
16699;SDS011;8466;52.286;21.124;2022-07-06T05:38:52;18.52;;;17.42;;
16699;SDS011;8466;52.286;21.124;2022-07-06T05:41:21;18.30;;;17.20;;
16699;SDS011;8466;52.286;21.124;2022-07-06T05:43:56;17.63;;;16.52;;
16699;SDS011;8466;52.286;21.124;2022-07-06T05:46:25;15.88;;;14.90;;
16699;SDS011;8466;52.286;21.124;2022-07-06T05:48:54;20.52;;;19.40;;
16699;SDS011;8466;52.286;21.124;2022-07-06T05:51:40;20.17;;;18.95;;
16699;SDS011;8466;52.286;21.124;2022-07-06T05:54:11;17.70;;;16.58;;
16699;SDS011;8466;52.286;21.124;2022-07-06T05:56:39;15.25;;;14.35;;
16699;SDS011;8466;52.286;21.124;2022-07-06T05:59:08;22.33;;;21.05;;
16699;SDS011;8466;52.286;21.124;2022-07-06T06:01:37;14.50;;;13.57;;
16699;SDS011;8466;52.286;21.124;2022-07-06T06:04:06;14.10;;;13.07;;
16699;SDS011;8466;52.286;21.124;2022-07-06T06:06:35;21.77;;;20.52;;
16699;SDS011;8466;52.286;21.124;2022-07-06T06:09:03;13.85;;;13.10;;
16699;SDS011;8466;52.286;21.124;2022-07-06T06:11:33;17.60;;;16.50;;
16699;SDS011;8466;52.286;21.124;2022-07-06T06:14:02;15.13;;;14.05;;
16699;SDS011;8466;52.286;21.124;2022-07-06T06:16:31;15.63;;;14.70;;
16699;SDS011;8466;52.286;21.124;2022-07-06T06:19:00;13.05;;;12.18;;
16699;SDS011;8466;52.286;21.124;2022-07-06T06:21:28;12.65;;;11.85;;
16699;SDS011;8466;52.286;21.124;2022-07-06T06:23:57;17.65;;;16.55;;
16699;SDS011;8466;52.286;21.124;2022-07-06T06:26:26;21.55;;;20.35;;
16699;SDS011;8466;52.286;21.124;2022-07-06T06:28:56;18.00;;;16.90;;
16699;SDS011;8466;52.286;21.124;2022-07-06T06:31:25;13.77;;;12.98;;
16699;SDS011;8466;52.286;21.124;2022-07-06T06:33:54;15.35;;;14.45;;
16699;SDS011;8466;52.286;21.124;2022-07-06T06:36:22;19.75;;;18.55;;
16699;SDS011;8466;52.286;21.124;2022-07-06T06:38:51;23.90;;;22.63;;
16699;SDS011;8466;52.286;21.124;2022-07-06T06:41:22;29.38;;;27.77;;
16699;SDS011;8466;52.286;21.124;2022-07-06T06:43:51;28.80;;;27.25;;
16699;SDS011;8466;52.286;21.124;2022-07-06T06:46:21;32.97;;;31.15;;
16699;SDS011;8466;52.286;21.124;2022-07-06T06:48:49;30.73;;;29.13;;
16699;SDS011;8466;52.286;21.124;2022-07-06T06:51:18;24.55;;;23.20;;
16699;SDS011;8466;52.286;21.124;2022-07-06T06:53:47;19.55;;;18.38;;
16699;SDS011;8466;52.286;21.124;2022-07-06T06:56:16;21.90;;;20.40;;
16699;SDS011;8466;52.286;21.124;2022-07-06T06:58:45;23.63;;;22.10;;
16699;SDS011;8466;52.286;21.124;2022-07-06T07:01:35;24.23;;;22.58;;
16699;SDS011;8466;52.286;21.124;2022-07-06T07:04:04;26.27;;;24.52;;
16699;SDS011;8466;52.286;21.124;2022-07-06T07:06:33;28.13;;;26.42;;
16699;SDS011;8466;52.286;21.124;2022-07-06T07:09:01;33.92;;;31.80;;
16699;SDS011;8466;52.286;21.124;2022-07-06T07:11:31;34.88;;;32.25;;
16699;SDS011;8466;52.286;21.124;2022-07-06T07:13:59;38.30;;;36.08;;
16699;SDS011;8466;52.286;21.124;2022-07-06T07:16:29;16.88;;;15.65;;
16699;SDS011;8466;52.286;21.124;2022-07-06T07:18:59;16.63;;;15.52;;
16699;SDS011;8466;52.286;21.124;2022-07-06T07:21:28;14.48;;;13.57;;
16699;SDS011;8466;52.286;21.124;2022-07-06T07:23:56;16.88;;;15.57;;
16699;SDS011;8466;52.286;21.124;2022-07-06T07:26:25;22.13;;;20.67;;
16699;SDS011;8466;52.286;21.124;2022-07-06T07:28:54;18.88;;;17.67;;
16699;SDS011;8466;52.286;21.124;2022-07-06T07:31:22;18.75;;;17.55;;
16699;SDS011;8466;52.286;21.124;2022-07-06T07:33:51;15.70;;;14.70;;
16699;SDS011;8466;52.286;21.124;2022-07-06T07:36:26;25.27;;;23.50;;
16699;SDS011;8466;52.286;21.124;2022-07-06T07:38:54;29.27;;;27.40;;
16699;SDS011;8466;52.286;21.124;2022-07-06T07:41:23;22.55;;;20.85;;
16699;SDS011;8466;52.286;21.124;2022-07-06T07:43:52;16.15;;;15.15;;
16699;SDS011;8466;52.286;21.124;2022-07-06T07:46:20;17.42;;;16.23;;
16699;SDS011;8466;52.286;21.124;2022-07-06T07:48:49;14.98;;;14.02;;
16699;SDS011;8466;52.286;21.124;2022-07-06T07:51:18;25.92;;;23.83;;
16699;SDS011;8466;52.286;21.124;2022-07-06T07:53:48;18.83;;;17.83;;
16699;SDS011;8466;52.286;21.124;2022-07-06T07:56:17;18.13;;;17.02;;
16699;SDS011;8466;52.286;21.124;2022-07-06T07:58:45;25.08;;;23.50;;
16699;SDS011;8466;52.286;21.124;2022-07-06T08:01:15;13.30;;;12.38;;
16699;SDS011;8466;52.286;21.124;2022-07-06T08:03:44;11.65;;;10.95;;
16699;SDS011;8466;52.286;21.124;2022-07-06T08:06:13;12.35;;;11.35;;
16699;SDS011;8466;52.286;21.124;2022-07-06T08:08:41;11.43;;;10.70;;
16699;SDS011;8466;52.286;21.124;2022-07-06T08:11:11;9.73;;;9.02;;
16699;SDS011;8466;52.286;21.124;2022-07-06T08:13:45;8.90;;;8.18;;
16699;SDS011;8466;52.286;21.124;2022-07-06T08:16:14;8.50;;;8.00;;
16699;SDS011;8466;52.286;21.124;2022-07-06T08:18:43;9.18;;;8.60;;
16699;SDS011;8466;52.286;21.124;2022-07-06T08:21:12;10.65;;;10.05;;
16699;SDS011;8466;52.286;21.124;2022-07-06T08:23:56;11.90;;;11.15;;
16699;SDS011;8466;52.286;21.124;2022-07-06T08:26:28;12.85;;;12.00;;
16699;SDS011;8466;52.286;21.124;2022-07-06T08:28:57;14.02;;;13.32;;
16699;SDS011;8466;52.286;21.124;2022-07-06T08:31:26;8.80;;;8.32;;
16699;SDS011;8466;52.286;21.124;2022-07-06T08:34:15;8.98;;;8.35;;
16699;SDS011;8466;52.286;21.124;2022-07-06T08:36:43;6.63;;;6.10;;
16699;SDS011;8466;52.286;21.124;2022-07-06T08:39:12;7.55;;;7.03;;
16699;SDS011;8466;52.286;21.124;2022-07-06T08:41:42;7.97;;;7.38;;
16699;SDS011;8466;52.286;21.124;2022-07-06T08:44:14;6.80;;;6.30;;
16699;SDS011;8466;52.286;21.124;2022-07-06T08:46:43;6.13;;;5.78;;
16699;SDS011;8466;52.286;21.124;2022-07-06T08:49:17;7.18;;;6.78;;
16699;SDS011;8466;52.286;21.124;2022-07-06T08:51:46;27.13;;;25.60;;
16699;SDS011;8466;52.286;21.124;2022-07-06T08:54:16;51.08;;;48.38;;
16699;SDS011;8466;52.286;21.124;2022-07-06T08:56:47;19.85;;;18.52;;
16699;SDS011;8466;52.286;21.124;2022-07-06T08:59:16;47.40;;;44.92;;
16699;SDS011;8466;52.286;21.124;2022-07-06T09:01:45;77.70;;;73.63;;
16699;SDS011;8466;52.286;21.124;2022-07-06T09:04:15;23.20;;;21.92;;
16699;SDS011;8466;52.286;21.124;2022-07-06T09:06:45;24.98;;;23.67;;
16699;SDS011;8466;52.286;21.124;2022-07-06T09:09:17;21.45;;;20.35;;
16699;SDS011;8466;52.286;21.124;2022-07-06T09:11:49;17.40;;;16.50;;
16699;SDS011;8466;52.286;21.124;2022-07-06T09:14:18;22.73;;;21.60;;
16699;SDS011;8466;52.286;21.124;2022-07-06T09:16:48;9.63;;;9.05;;
16699;SDS011;8466;52.286;21.124;2022-07-06T09:19:20;8.93;;;8.32;;
16699;SDS011;8466;52.286;21.124;2022-07-06T09:21:49;11.48;;;10.30;;
16699;SDS011;8466;52.286;21.124;2022-07-06T09:24:17;11.52;;;10.93;;
16699;SDS011;8466;52.286;21.124;2022-07-06T09:26:47;6.88;;;6.57;;
16699;SDS011;8466;52.286;21.124;2022-07-06T09:29:17;8.88;;;8.02;;
16699;SDS011;8466;52.286;21.124;2022-07-06T09:31:55;6.20;;;5.70;;
16699;SDS011;8466;52.286;21.124;2022-07-06T09:34:27;9.50;;;8.90;;
16699;SDS011;8466;52.286;21.124;2022-07-06T09:37:09;8.88;;;8.32;;
16699;SDS011;8466;52.286;21.124;2022-07-06T09:39:37;13.73;;;12.77;;
16699;SDS011;8466;52.286;21.124;2022-07-06T09:42:08;17.52;;;16.40;;
16699;SDS011;8466;52.286;21.124;2022-07-06T09:44:37;15.13;;;14.32;;
16699;SDS011;8466;52.286;21.124;2022-07-06T09:47:08;15.05;;;14.25;;
16699;SDS011;8466;52.286;21.124;2022-07-06T09:49:38;13.35;;;12.55;;
16699;SDS011;8466;52.286;21.124;2022-07-06T09:52:08;13.52;;;12.52;;
16699;SDS011;8466;52.286;21.124;2022-07-06T09:54:38;12.00;;;11.35;;
16699;SDS011;8466;52.286;21.124;2022-07-06T09:57:09;9.27;;;8.70;;
16699;SDS011;8466;52.286;21.124;2022-07-06T09:59:39;9.38;;;8.80;;
16699;SDS011;8466;52.286;21.124;2022-07-06T10:02:07;10.82;;;10.23;;
16699;SDS011;8466;52.286;21.124;2022-07-06T10:04:37;9.98;;;9.38;;
16699;SDS011;8466;52.286;21.124;2022-07-06T10:07:06;9.20;;;8.60;;
16699;SDS011;8466;52.286;21.124;2022-07-06T10:09:36;13.00;;;12.32;;
16699;SDS011;8466;52.286;21.124;2022-07-06T10:12:06;9.52;;;9.00;;
16699;SDS011;8466;52.286;21.124;2022-07-06T10:14:41;13.50;;;12.60;;
16699;SDS011;8466;52.286;21.124;2022-07-06T10:17:17;11.85;;;11.10;;
16699;SDS011;8466;52.286;21.124;2022-07-06T10:19:46;15.98;;;14.82;;
16699;SDS011;8466;52.286;21.124;2022-07-06T10:22:16;17.52;;;16.55;;
16699;SDS011;8466;52.286;21.124;2022-07-06T10:24:46;18.33;;;17.13;;
16699;SDS011;8466;52.286;21.124;2022-07-06T10:27:18;16.80;;;15.88;;
16699;SDS011;8466;52.286;21.124;2022-07-06T10:29:47;18.85;;;17.83;;
16699;SDS011;8466;52.286;21.124;2022-07-06T10:32:17;20.70;;;19.67;;
16699;SDS011;8466;52.286;21.124;2022-07-06T10:34:50;17.58;;;16.55;;
16699;SDS011;8466;52.286;21.124;2022-07-06T10:37:23;13.90;;;12.93;;
16699;SDS011;8466;52.286;21.124;2022-07-06T10:39:53;21.63;;;20.52;;
16699;SDS011;8466;52.286;21.124;2022-07-06T10:42:42;19.73;;;18.55;;
16699;SDS011;8466;52.286;21.124;2022-07-06T10:45:13;35.53;;;33.78;;
16699;SDS011;8466;52.286;21.124;2022-07-06T10:47:43;33.67;;;31.92;;
16699;SDS011;8466;52.286;21.124;2022-07-06T10:50:12;37.03;;;35.10;;
16699;SDS011;8466;52.286;21.124;2022-07-06T10:52:49;125.27;;;117.73;;
16699;SDS011;8466;52.286;21.124;2022-07-06T10:55:29;80.97;;;76.38;;
16699;SDS011;8466;52.286;21.124;2022-07-06T10:58:01;48.85;;;45.92;;
16699;SDS011;8466;52.286;21.124;2022-07-06T11:03:31;36.60;;;34.58;;
16699;SDS011;8466;52.286;21.124;2022-07-06T11:06:01;40.70;;;38.55;;
16699;SDS011;8466;52.286;21.124;2022-07-06T11:08:43;47.08;;;44.60;;
16699;SDS011;8466;52.286;21.124;2022-07-06T11:11:13;42.50;;;40.22;;
16699;SDS011;8466;52.286;21.124;2022-07-06T11:13:51;39.35;;;37.25;;
16699;SDS011;8466;52.286;21.124;2022-07-06T11:16:28;52.53;;;49.65;;
16699;SDS011;8466;52.286;21.124;2022-07-06T11:19:01;58.28;;;55.15;;
16699;SDS011;8466;52.286;21.124;2022-07-06T11:21:33;60.35;;;57.25;;
16699;SDS011;8466;52.286;21.124;2022-07-06T11:24:04;72.50;;;68.80;;
16699;SDS011;8466;52.286;21.124;2022-07-06T11:26:34;83.00;;;78.63;;
16699;SDS011;8466;52.286;21.124;2022-07-06T11:29:08;87.10;;;82.43;;
16699;SDS011;8466;52.286;21.124;2022-07-06T11:31:38;69.90;;;66.28;;
16699;SDS011;8466;52.286;21.124;2022-07-06T11:34:08;74.55;;;70.43;;
16699;SDS011;8466;52.286;21.124;2022-07-06T11:36:39;66.47;;;63.03;;
16699;SDS011;8466;52.286;21.124;2022-07-06T11:39:12;58.38;;;55.30;;
16699;SDS011;8466;52.286;21.124;2022-07-06T11:41:40;53.72;;;50.85;;
16699;SDS011;8466;52.286;21.124;2022-07-06T11:44:18;50.25;;;47.63;;
16699;SDS011;8466;52.286;21.124;2022-07-06T11:46:47;48.65;;;46.13;;
16699;SDS011;8466;52.286;21.124;2022-07-06T11:49:16;51.17;;;48.38;;
16699;SDS011;8466;52.286;21.124;2022-07-06T11:51:45;40.38;;;38.25;;
16699;SDS011;8466;52.286;21.124;2022-07-06T11:54:15;126.22;;;118.78;;
16699;SDS011;8466;52.286;21.124;2022-07-06T11:56:47;116.75;;;110.20;;
16699;SDS011;8466;52.286;21.124;2022-07-06T11:59:21;87.82;;;83.15;;
16699;SDS011;8466;52.286;21.124;2022-07-06T12:01:57;57.35;;;54.30;;
16699;SDS011;8466;52.286;21.124;2022-07-06T12:04:27;70.22;;;66.53;;
16699;SDS011;8466;52.286;21.124;2022-07-06T12:06:59;61.55;;;58.30;;
16699;SDS011;8466;52.286;21.124;2022-07-06T12:09:29;74.68;;;70.88;;
16699;SDS011;8466;52.286;21.124;2022-07-06T12:11:59;78.80;;;74.78;;
16699;SDS011;8466;52.286;21.124;2022-07-06T12:14:31;83.18;;;78.93;;
16699;SDS011;8466;52.286;21.124;2022-07-06T12:17:02;66.90;;;63.38;;
16699;SDS011;8466;52.286;21.124;2022-07-06T12:19:34;59.05;;;56.03;;
16699;SDS011;8466;52.286;21.124;2022-07-06T12:22:04;52.35;;;49.60;;
16699;SDS011;8466;52.286;21.124;2022-07-06T12:24:34;45.28;;;42.80;;
16699;SDS011;8466;52.286;21.124;2022-07-06T12:27:11;49.85;;;47.28;;
16699;SDS011;8466;52.286;21.124;2022-07-06T12:29:42;56.10;;;53.13;;
16699;SDS011;8466;52.286;21.124;2022-07-06T12:32:15;67.45;;;64.00;;
16699;SDS011;8466;52.286;21.124;2022-07-06T12:34:44;58.05;;;54.83;;
16699;SDS011;8466;52.286;21.124;2022-07-06T12:37:13;63.25;;;59.85;;
16699;SDS011;8466;52.286;21.124;2022-07-06T12:39:42;64.70;;;61.25;;
16699;SDS011;8466;52.286;21.124;2022-07-06T12:42:13;66.55;;;62.80;;
16699;SDS011;8466;52.286;21.124;2022-07-06T12:44:47;56.58;;;53.55;;
16699;SDS011;8466;52.286;21.124;2022-07-06T12:47:17;73.80;;;69.70;;
16699;SDS011;8466;52.286;21.124;2022-07-06T12:49:48;98.10;;;92.82;;
16699;SDS011;8466;52.286;21.124;2022-07-06T12:52:32;82.00;;;77.40;;
16699;SDS011;8466;52.286;21.124;2022-07-06T12:55:02;108.28;;;102.57;;
16699;SDS011;8466;52.286;21.124;2022-07-06T12:57:42;223.85;;;211.93;;
16699;SDS011;8466;52.286;21.124;2022-07-06T13:00:14;145.77;;;137.95;;
16699;SDS011;8466;52.286;21.124;2022-07-06T13:02:44;96.00;;;90.70;;
16699;SDS011;8466;52.286;21.124;2022-07-06T13:05:34;76.15;;;72.15;;
16699;SDS011;8466;52.286;21.124;2022-07-06T13:08:05;72.57;;;68.63;;
16699;SDS011;8466;52.286;21.124;2022-07-06T13:10:35;68.68;;;65.10;;
16699;SDS011;8466;52.286;21.124;2022-07-06T13:13:07;73.72;;;69.75;;
16699;SDS011;8466;52.286;21.124;2022-07-06T13:15:40;88.15;;;83.57;;
16699;SDS011;8466;52.286;21.124;2022-07-06T13:18:09;71.32;;;67.65;;
16699;SDS011;8466;52.286;21.124;2022-07-06T13:20:39;83.20;;;78.82;;
16699;SDS011;8466;52.286;21.124;2022-07-06T13:23:10;91.20;;;86.30;;
16699;SDS011;8466;52.286;21.124;2022-07-06T13:25:39;76.57;;;72.35;;
16699;SDS011;8466;52.286;21.124;2022-07-06T13:28:08;79.28;;;75.05;;
16699;SDS011;8466;52.286;21.124;2022-07-06T13:30:38;70.93;;;66.95;;
16699;SDS011;8466;52.286;21.124;2022-07-06T13:33:07;76.78;;;72.47;;
16699;SDS011;8466;52.286;21.124;2022-07-06T13:35:36;76.47;;;72.38;;
16699;SDS011;8466;52.286;21.124;2022-07-06T13:38:04;92.15;;;87.30;;
16699;SDS011;8466;52.286;21.124;2022-07-06T13:40:40;95.03;;;90.00;;
16699;SDS011;8466;52.286;21.124;2022-07-06T13:43:09;98.00;;;92.50;;
16699;SDS011;8466;52.286;21.124;2022-07-06T13:45:39;90.07;;;85.32;;
16699;SDS011;8466;52.286;21.124;2022-07-06T13:48:08;104.35;;;98.75;;
16699;SDS011;8466;52.286;21.124;2022-07-06T13:50:36;83.63;;;79.20;;
16699;SDS011;8466;52.286;21.124;2022-07-06T13:53:05;101.95;;;96.15;;
16699;SDS011;8466;52.286;21.124;2022-07-06T13:55:34;85.60;;;80.95;;
16699;SDS011;8466;52.286;21.124;2022-07-06T13:58:03;90.10;;;85.55;;
16699;SDS011;8466;52.286;21.124;2022-07-06T14:00:32;102.63;;;97.15;;
16699;SDS011;8466;52.286;21.124;2022-07-06T14:03:02;87.97;;;83.07;;
16699;SDS011;8466;52.286;21.124;2022-07-06T14:05:31;89.32;;;84.47;;
16699;SDS011;8466;52.286;21.124;2022-07-06T14:08:00;85.47;;;80.97;;
16699;SDS011;8466;52.286;21.124;2022-07-06T14:10:29;71.35;;;67.53;;
16699;SDS011;8466;52.286;21.124;2022-07-06T14:12:58;96.22;;;90.90;;
16699;SDS011;8466;52.286;21.124;2022-07-06T14:15:26;78.82;;;74.30;;
16699;SDS011;8466;52.286;21.124;2022-07-06T14:17:55;133.50;;;125.93;;
16699;SDS011;8466;52.286;21.124;2022-07-06T14:20:25;154.63;;;145.90;;
16699;SDS011;8466;52.286;21.124;2022-07-06T14:22:54;150.40;;;142.38;;
16699;SDS011;8466;52.286;21.124;2022-07-06T14:25:23;122.88;;;116.30;;
16699;SDS011;8466;52.286;21.124;2022-07-06T14:27:51;85.60;;;81.05;;
16699;SDS011;8466;52.286;21.124;2022-07-06T14:30:20;96.53;;;91.40;;
16699;SDS011;8466;52.286;21.124;2022-07-06T14:32:49;83.40;;;78.05;;
16699;SDS011;8466;52.286;21.124;2022-07-06T14:35:18;87.30;;;82.68;;
16699;SDS011;8466;52.286;21.124;2022-07-06T14:37:48;87.72;;;83.10;;
16699;SDS011;8466;52.286;21.124;2022-07-06T14:40:17;90.25;;;85.60;;
16699;SDS011;8466;52.286;21.124;2022-07-06T14:42:46;70.13;;;66.43;;